sensor_id;sensor_type;location;lat;lon;timestamp;P1;durP1;ratioP1;P2;durP2;ratioP2
20982;SDS011;10650;51.528;6.748;2022-08-19T00:01:35;8.23;;;7.43;;
20982;SDS011;10650;51.528;6.748;2022-08-19T00:04:07;8.55;;;7.75;;
20982;SDS011;10650;51.528;6.748;2022-08-19T00:06:38;7.63;;;6.80;;
20982;SDS011;10650;51.528;6.748;2022-08-19T00:09:08;7.32;;;6.63;;
20982;SDS011;10650;51.528;6.748;2022-08-19T00:11:38;7.65;;;6.68;;
20982;SDS011;10650;51.528;6.748;2022-08-19T00:14:07;8.23;;;7.43;;
20982;SDS011;10650;51.528;6.748;2022-08-19T00:16:39;7.85;;;6.72;;
20982;SDS011;10650;51.528;6.748;2022-08-19T00:19:08;8.60;;;7.77;;
20982;SDS011;10650;51.528;6.748;2022-08-19T00:21:36;7.40;;;6.72;;
20982;SDS011;10650;51.528;6.748;2022-08-19T00:24:06;9.73;;;7.90;;
20982;SDS011;10650;51.528;6.748;2022-08-19T00:26:35;8.30;;;7.50;;
20982;SDS011;10650;51.528;6.748;2022-08-19T00:29:04;8.73;;;7.65;;
20982;SDS011;10650;51.528;6.748;2022-08-19T00:31:34;8.43;;;7.55;;
20982;SDS011;10650;51.528;6.748;2022-08-19T00:34:03;8.70;;;7.65;;
20982;SDS011;10650;51.528;6.748;2022-08-19T00:36:31;8.38;;;7.68;;
20982;SDS011;10650;51.528;6.748;2022-08-19T00:38:59;9.45;;;8.60;;
20982;SDS011;10650;51.528;6.748;2022-08-19T00:41:27;8.68;;;7.60;;
20982;SDS011;10650;51.528;6.748;2022-08-19T00:44:00;8.18;;;7.47;;
20982;SDS011;10650;51.528;6.748;2022-08-19T00:46:30;9.05;;;8.23;;
20982;SDS011;10650;51.528;6.748;2022-08-19T00:48:58;8.85;;;7.95;;
20982;SDS011;10650;51.528;6.748;2022-08-19T00:51:29;8.43;;;7.55;;
20982;SDS011;10650;51.528;6.748;2022-08-19T00:53:59;8.52;;;7.65;;
20982;SDS011;10650;51.528;6.748;2022-08-19T00:56:28;7.40;;;6.70;;
20982;SDS011;10650;51.528;6.748;2022-08-19T00:58:58;7.90;;;7.20;;
20982;SDS011;10650;51.528;6.748;2022-08-19T01:01:26;9.13;;;8.35;;
20982;SDS011;10650;51.528;6.748;2022-08-19T01:03:54;8.10;;;7.30;;
20982;SDS011;10650;51.528;6.748;2022-08-19T01:06:24;8.57;;;7.82;;
20982;SDS011;10650;51.528;6.748;2022-08-19T01:08:54;8.77;;;7.88;;
20982;SDS011;10650;51.528;6.748;2022-08-19T01:11:22;8.52;;;7.72;;
20982;SDS011;10650;51.528;6.748;2022-08-19T01:13:50;8.70;;;7.63;;
20982;SDS011;10650;51.528;6.748;2022-08-19T01:16:21;9.15;;;8.35;;
20982;SDS011;10650;51.528;6.748;2022-08-19T01:18:52;9.32;;;8.43;;
20982;SDS011;10650;51.528;6.748;2022-08-19T01:21:21;8.57;;;7.75;;
20982;SDS011;10650;51.528;6.748;2022-08-19T01:23:55;8.13;;;7.32;;
20982;SDS011;10650;51.528;6.748;2022-08-19T01:26:24;8.15;;;7.45;;
20982;SDS011;10650;51.528;6.748;2022-08-19T01:28:53;9.55;;;8.65;;
20982;SDS011;10650;51.528;6.748;2022-08-19T01:31:27;8.73;;;7.93;;
20982;SDS011;10650;51.528;6.748;2022-08-19T01:33:58;9.23;;;8.32;;
20982;SDS011;10650;51.528;6.748;2022-08-19T01:36:28;9.88;;;8.88;;
20982;SDS011;10650;51.528;6.748;2022-08-19T01:38:59;9.27;;;8.48;;
20982;SDS011;10650;51.528;6.748;2022-08-19T01:41:31;8.05;;;7.20;;
20982;SDS011;10650;51.528;6.748;2022-08-19T01:43:59;9.80;;;8.27;;
20982;SDS011;10650;51.528;6.748;2022-08-19T01:46:44;8.10;;;7.22;;
20982;SDS011;10650;51.528;6.748;2022-08-19T01:49:14;9.45;;;8.52;;
20982;SDS011;10650;51.528;6.748;2022-08-19T01:51:43;12.35;;;10.02;;
20982;SDS011;10650;51.528;6.748;2022-08-19T01:54:13;10.45;;;9.45;;
20982;SDS011;10650;51.528;6.748;2022-08-19T01:56:54;9.00;;;8.23;;
20982;SDS011;10650;51.528;6.748;2022-08-19T01:59:27;10.95;;;9.85;;
20982;SDS011;10650;51.528;6.748;2022-08-19T02:01:55;9.93;;;9.02;;
20982;SDS011;10650;51.528;6.748;2022-08-19T02:04:23;9.43;;;8.63;;
20982;SDS011;10650;51.528;6.748;2022-08-19T02:06:51;11.50;;;10.38;;
20982;SDS011;10650;51.528;6.748;2022-08-19T02:09:20;9.85;;;8.85;;
20982;SDS011;10650;51.528;6.748;2022-08-19T02:11:48;8.90;;;7.97;;
20982;SDS011;10650;51.528;6.748;2022-08-19T02:14:16;8.65;;;7.88;;
20982;SDS011;10650;51.528;6.748;2022-08-19T02:16:44;10.60;;;9.60;;
20982;SDS011;10650;51.528;6.748;2022-08-19T02:19:12;12.18;;;10.98;;
20982;SDS011;10650;51.528;6.748;2022-08-19T02:21:40;11.30;;;10.20;;
20982;SDS011;10650;51.528;6.748;2022-08-19T02:24:07;9.25;;;8.35;;
20982;SDS011;10650;51.528;6.748;2022-08-19T02:26:36;10.07;;;9.18;;
20982;SDS011;10650;51.528;6.748;2022-08-19T02:29:04;10.68;;;9.57;;
20982;SDS011;10650;51.528;6.748;2022-08-19T02:31:32;10.57;;;9.60;;
20982;SDS011;10650;51.528;6.748;2022-08-19T02:34:00;11.30;;;9.75;;
20982;SDS011;10650;51.528;6.748;2022-08-19T02:36:28;10.18;;;9.15;;
20982;SDS011;10650;51.528;6.748;2022-08-19T02:38:56;10.80;;;9.70;;
20982;SDS011;10650;51.528;6.748;2022-08-19T02:41:24;13.23;;;12.02;;
20982;SDS011;10650;51.528;6.748;2022-08-19T02:43:56;9.75;;;8.95;;
20982;SDS011;10650;51.528;6.748;2022-08-19T02:46:47;10.40;;;9.50;;
20982;SDS011;10650;51.528;6.748;2022-08-19T02:49:18;10.65;;;9.65;;
20982;SDS011;10650;51.528;6.748;2022-08-19T02:51:49;10.68;;;9.70;;
20982;SDS011;10650;51.528;6.748;2022-08-19T02:54:17;10.60;;;9.60;;
20982;SDS011;10650;51.528;6.748;2022-08-19T02:56:45;11.63;;;10.57;;
20982;SDS011;10650;51.528;6.748;2022-08-19T02:59:14;11.43;;;10.40;;
20982;SDS011;10650;51.528;6.748;2022-08-19T03:01:45;11.68;;;10.65;;
20982;SDS011;10650;51.528;6.748;2022-08-19T03:04:14;10.55;;;9.45;;
20982;SDS011;10650;51.528;6.748;2022-08-19T03:06:44;12.05;;;10.90;;
20982;SDS011;10650;51.528;6.748;2022-08-19T03:09:13;10.57;;;9.45;;
20982;SDS011;10650;51.528;6.748;2022-08-19T03:11:42;11.30;;;10.23;;
20982;SDS011;10650;51.528;6.748;2022-08-19T03:14:15;11.00;;;9.85;;
20982;SDS011;10650;51.528;6.748;2022-08-19T03:16:47;10.65;;;9.63;;
20982;SDS011;10650;51.528;6.748;2022-08-19T03:19:20;10.60;;;9.63;;
20982;SDS011;10650;51.528;6.748;2022-08-19T03:21:48;12.43;;;11.23;;
20982;SDS011;10650;51.528;6.748;2022-08-19T03:24:18;11.63;;;10.43;;
20982;SDS011;10650;51.528;6.748;2022-08-19T03:26:48;11.82;;;10.73;;
20982;SDS011;10650;51.528;6.748;2022-08-19T03:31:56;12.77;;;11.48;;
20982;SDS011;10650;51.528;6.748;2022-08-19T03:34:26;11.13;;;10.20;;
20982;SDS011;10650;51.528;6.748;2022-08-19T03:36:56;10.70;;;9.80;;
20982;SDS011;10650;51.528;6.748;2022-08-19T03:39:27;12.85;;;11.65;;
20982;SDS011;10650;51.528;6.748;2022-08-19T03:41:56;13.70;;;12.35;;
20982;SDS011;10650;51.528;6.748;2022-08-19T03:44:47;14.05;;;12.70;;
20982;SDS011;10650;51.528;6.748;2022-08-19T03:47:15;12.23;;;11.10;;
20982;SDS011;10650;51.528;6.748;2022-08-19T03:49:43;12.40;;;11.32;;
20982;SDS011;10650;51.528;6.748;2022-08-19T03:52:12;12.48;;;11.27;;
20982;SDS011;10650;51.528;6.748;2022-08-19T03:54:40;14.70;;;12.88;;
20982;SDS011;10650;51.528;6.748;2022-08-19T03:57:08;11.43;;;10.23;;
20982;SDS011;10650;51.528;6.748;2022-08-19T03:59:37;16.13;;;14.45;;
20982;SDS011;10650;51.528;6.748;2022-08-19T04:02:08;15.02;;;13.52;;
20982;SDS011;10650;51.528;6.748;2022-08-19T04:04:38;12.95;;;11.63;;
20982;SDS011;10650;51.528;6.748;2022-08-19T04:07:07;13.55;;;10.93;;
20982;SDS011;10650;51.528;6.748;2022-08-19T04:09:37;12.90;;;11.50;;
20982;SDS011;10650;51.528;6.748;2022-08-19T04:12:05;13.18;;;11.85;;
20982;SDS011;10650;51.528;6.748;2022-08-19T04:14:33;13.63;;;12.43;;
20982;SDS011;10650;51.528;6.748;2022-08-19T04:17:03;12.90;;;11.63;;
20982;SDS011;10650;51.528;6.748;2022-08-19T04:19:38;15.20;;;13.73;;
20982;SDS011;10650;51.528;6.748;2022-08-19T04:22:06;14.43;;;13.07;;
20982;SDS011;10650;51.528;6.748;2022-08-19T04:24:34;13.45;;;12.05;;
20982;SDS011;10650;51.528;6.748;2022-08-19T04:27:03;13.60;;;12.30;;
20982;SDS011;10650;51.528;6.748;2022-08-19T04:29:32;13.95;;;12.55;;
20982;SDS011;10650;51.528;6.748;2022-08-19T04:32:01;11.85;;;10.75;;
20982;SDS011;10650;51.528;6.748;2022-08-19T04:34:36;12.10;;;11.00;;
20982;SDS011;10650;51.528;6.748;2022-08-19T04:37:25;15.35;;;13.75;;
20982;SDS011;10650;51.528;6.748;2022-08-19T04:40:00;15.00;;;13.60;;
20982;SDS011;10650;51.528;6.748;2022-08-19T04:42:46;14.43;;;13.00;;
20982;SDS011;10650;51.528;6.748;2022-08-19T04:45:14;15.75;;;12.27;;
20982;SDS011;10650;51.528;6.748;2022-08-19T04:47:43;12.98;;;11.55;;
20982;SDS011;10650;51.528;6.748;2022-08-19T04:50:24;12.82;;;11.52;;
20982;SDS011;10650;51.528;6.748;2022-08-19T04:52:53;12.98;;;11.68;;
20982;SDS011;10650;51.528;6.748;2022-08-19T04:55:22;14.63;;;13.05;;
20982;SDS011;10650;51.528;6.748;2022-08-19T04:57:51;13.50;;;12.02;;
20982;SDS011;10650;51.528;6.748;2022-08-19T05:00:19;13.75;;;12.35;;
20982;SDS011;10650;51.528;6.748;2022-08-19T05:02:47;12.80;;;11.50;;
20982;SDS011;10650;51.528;6.748;2022-08-19T05:05:15;14.30;;;12.80;;
20982;SDS011;10650;51.528;6.748;2022-08-19T05:07:45;18.65;;;14.48;;
20982;SDS011;10650;51.528;6.748;2022-08-19T05:10:12;14.70;;;11.85;;
20982;SDS011;10650;51.528;6.748;2022-08-19T05:12:40;17.85;;;14.80;;
20982;SDS011;10650;51.528;6.748;2022-08-19T05:15:08;17.38;;;15.45;;
20982;SDS011;10650;51.528;6.748;2022-08-19T05:17:37;13.48;;;12.18;;
20982;SDS011;10650;51.528;6.748;2022-08-19T05:20:25;15.32;;;13.90;;
20982;SDS011;10650;51.528;6.748;2022-08-19T05:23:12;14.15;;;12.85;;
20982;SDS011;10650;51.528;6.748;2022-08-19T05:25:47;15.40;;;13.80;;
20982;SDS011;10650;51.528;6.748;2022-08-19T05:28:16;15.40;;;13.90;;
20982;SDS011;10650;51.528;6.748;2022-08-19T05:30:44;14.95;;;13.48;;
20982;SDS011;10650;51.528;6.748;2022-08-19T05:33:14;15.82;;;14.23;;
20982;SDS011;10650;51.528;6.748;2022-08-19T05:35:42;18.23;;;15.70;;
20982;SDS011;10650;51.528;6.748;2022-08-19T05:38:10;20.92;;;18.08;;
20982;SDS011;10650;51.528;6.748;2022-08-19T05:40:42;22.75;;;20.05;;
20982;SDS011;10650;51.528;6.748;2022-08-19T05:43:15;34.05;;;27.38;;
20982;SDS011;10650;51.528;6.748;2022-08-19T05:45:43;33.70;;;29.27;;
20982;SDS011;10650;51.528;6.748;2022-08-19T05:48:12;36.38;;;28.42;;
20982;SDS011;10650;51.528;6.748;2022-08-19T05:50:41;36.35;;;30.50;;
20982;SDS011;10650;51.528;6.748;2022-08-19T05:53:10;35.85;;;30.92;;
20982;SDS011;10650;51.528;6.748;2022-08-19T05:55:38;37.33;;;32.40;;
20982;SDS011;10650;51.528;6.748;2022-08-19T05:58:07;34.88;;;30.42;;
20982;SDS011;10650;51.528;6.748;2022-08-19T06:00:35;43.50;;;36.38;;
20982;SDS011;10650;51.528;6.748;2022-08-19T06:03:04;45.13;;;38.85;;
20982;SDS011;10650;51.528;6.748;2022-08-19T06:05:39;42.42;;;36.28;;
20982;SDS011;10650;51.528;6.748;2022-08-19T06:08:17;43.65;;;37.55;;
20982;SDS011;10650;51.528;6.748;2022-08-19T06:13:47;47.77;;;40.20;;
20982;SDS011;10650;51.528;6.748;2022-08-19T06:16:28;50.30;;;42.05;;
20982;SDS011;10650;51.528;6.748;2022-08-19T06:19:02;49.88;;;42.38;;
20982;SDS011;10650;51.528;6.748;2022-08-19T06:21:33;47.92;;;41.28;;
20982;SDS011;10650;51.528;6.748;2022-08-19T06:24:04;48.13;;;40.40;;
20982;SDS011;10650;51.528;6.748;2022-08-19T06:26:33;46.75;;;41.65;;
20982;SDS011;10650;51.528;6.748;2022-08-19T06:29:07;43.03;;;36.90;;
20982;SDS011;10650;51.528;6.748;2022-08-19T06:31:49;46.58;;;41.58;;
20982;SDS011;10650;51.528;6.748;2022-08-19T06:34:19;42.45;;;36.70;;
20982;SDS011;10650;51.528;6.748;2022-08-19T06:36:48;49.40;;;42.85;;
20982;SDS011;10650;51.528;6.748;2022-08-19T06:39:18;41.75;;;37.35;;
20982;SDS011;10650;51.528;6.748;2022-08-19T06:41:49;46.28;;;41.30;;
20982;SDS011;10650;51.528;6.748;2022-08-19T06:44:25;43.95;;;39.15;;
20982;SDS011;10650;51.528;6.748;2022-08-19T06:46:57;43.22;;;38.45;;
20982;SDS011;10650;51.528;6.748;2022-08-19T06:49:25;42.17;;;37.13;;
20982;SDS011;10650;51.528;6.748;2022-08-19T06:51:58;43.30;;;38.42;;
20982;SDS011;10650;51.528;6.748;2022-08-19T06:54:27;36.50;;;32.60;;
20982;SDS011;10650;51.528;6.748;2022-08-19T06:56:56;41.60;;;37.08;;
20982;SDS011;10650;51.528;6.748;2022-08-19T06:59:25;43.72;;;39.22;;
20982;SDS011;10650;51.528;6.748;2022-08-19T07:01:55;43.30;;;38.70;;
20982;SDS011;10650;51.528;6.748;2022-08-19T07:04:25;35.90;;;32.10;;
20982;SDS011;10650;51.528;6.748;2022-08-19T07:06:57;45.33;;;40.40;;
20982;SDS011;10650;51.528;6.748;2022-08-19T07:09:45;44.60;;;39.80;;
20982;SDS011;10650;51.528;6.748;2022-08-19T07:12:26;38.83;;;34.72;;
20982;SDS011;10650;51.528;6.748;2022-08-19T07:14:57;45.83;;;41.03;;
20982;SDS011;10650;51.528;6.748;2022-08-19T07:17:26;42.05;;;37.45;;
20982;SDS011;10650;51.528;6.748;2022-08-19T07:19:56;39.50;;;35.30;;
20982;SDS011;10650;51.528;6.748;2022-08-19T07:22:47;41.88;;;37.57;;
20982;SDS011;10650;51.528;6.748;2022-08-19T07:25:15;43.10;;;38.28;;
20982;SDS011;10650;51.528;6.748;2022-08-19T07:27:44;40.60;;;36.28;;
20982;SDS011;10650;51.528;6.748;2022-08-19T07:30:21;43.55;;;38.10;;
20982;SDS011;10650;51.528;6.748;2022-08-19T07:32:51;43.05;;;38.53;;
20982;SDS011;10650;51.528;6.748;2022-08-19T07:35:19;37.05;;;33.03;;
20982;SDS011;10650;51.528;6.748;2022-08-19T07:37:47;41.40;;;36.92;;
20982;SDS011;10650;51.528;6.748;2022-08-19T07:40:15;36.47;;;32.58;;
20982;SDS011;10650;51.528;6.748;2022-08-19T07:42:43;35.65;;;31.77;;
20982;SDS011;10650;51.528;6.748;2022-08-19T07:45:11;38.70;;;34.70;;
20982;SDS011;10650;51.528;6.748;2022-08-19T07:47:40;37.25;;;33.33;;
20982;SDS011;10650;51.528;6.748;2022-08-19T07:50:24;39.08;;;34.75;;
20982;SDS011;10650;51.528;6.748;2022-08-19T07:52:51;37.75;;;32.03;;
20982;SDS011;10650;51.528;6.748;2022-08-19T07:55:22;38.03;;;33.88;;
20982;SDS011;10650;51.528;6.748;2022-08-19T07:58:09;39.25;;;34.53;;
20982;SDS011;10650;51.528;6.748;2022-08-19T08:00:37;39.22;;;35.05;;
20982;SDS011;10650;51.528;6.748;2022-08-19T08:03:07;39.72;;;35.28;;
20982;SDS011;10650;51.528;6.748;2022-08-19T08:05:35;43.95;;;34.63;;
20982;SDS011;10650;51.528;6.748;2022-08-19T08:08:21;44.35;;;38.70;;
20982;SDS011;10650;51.528;6.748;2022-08-19T08:11:09;39.97;;;34.95;;
20982;SDS011;10650;51.528;6.748;2022-08-19T08:13:40;40.75;;;35.35;;
20982;SDS011;10650;51.528;6.748;2022-08-19T08:16:08;38.17;;;33.97;;
20982;SDS011;10650;51.528;6.748;2022-08-19T08:18:41;37.42;;;31.92;;
20982;SDS011;10650;51.528;6.748;2022-08-19T08:21:16;33.38;;;29.70;;
20982;SDS011;10650;51.528;6.748;2022-08-19T08:23:43;28.35;;;25.52;;
20982;SDS011;10650;51.528;6.748;2022-08-19T08:26:17;31.90;;;28.50;;
20982;SDS011;10650;51.528;6.748;2022-08-19T08:28:45;34.90;;;31.40;;
20982;SDS011;10650;51.528;6.748;2022-08-19T08:31:15;31.40;;;28.05;;
20982;SDS011;10650;51.528;6.748;2022-08-19T08:33:46;31.90;;;28.45;;
20982;SDS011;10650;51.528;6.748;2022-08-19T08:36:14;29.63;;;26.08;;
20982;SDS011;10650;51.528;6.748;2022-08-19T08:38:43;29.42;;;26.42;;
20982;SDS011;10650;51.528;6.748;2022-08-19T08:41:14;28.40;;;25.20;;
20982;SDS011;10650;51.528;6.748;2022-08-19T08:43:50;34.03;;;28.85;;
20982;SDS011;10650;51.528;6.748;2022-08-19T08:46:21;29.88;;;26.67;;
20982;SDS011;10650;51.528;6.748;2022-08-19T08:48:59;29.95;;;25.90;;
20982;SDS011;10650;51.528;6.748;2022-08-19T08:51:36;28.30;;;25.30;;
20982;SDS011;10650;51.528;6.748;2022-08-19T08:54:10;31.17;;;27.77;;
20982;SDS011;10650;51.528;6.748;2022-08-19T08:56:41;29.55;;;25.80;;
20982;SDS011;10650;51.528;6.748;2022-08-19T08:59:12;25.83;;;23.02;;
20982;SDS011;10650;51.528;6.748;2022-08-19T09:01:46;27.55;;;23.02;;
20982;SDS011;10650;51.528;6.748;2022-08-19T09:04:16;27.45;;;24.45;;
20982;SDS011;10650;51.528;6.748;2022-08-19T09:06:46;27.30;;;24.25;;
20982;SDS011;10650;51.528;6.748;2022-08-19T09:09:20;26.90;;;24.10;;
20982;SDS011;10650;51.528;6.748;2022-08-19T09:11:59;25.52;;;19.60;;
20982;SDS011;10650;51.528;6.748;2022-08-19T09:14:38;27.73;;;24.38;;
20982;SDS011;10650;51.528;6.748;2022-08-19T09:17:17;22.25;;;17.77;;
20982;SDS011;10650;51.528;6.748;2022-08-19T09:19:59;23.33;;;20.25;;
20982;SDS011;10650;51.528;6.748;2022-08-19T09:22:34;23.60;;;21.20;;
20982;SDS011;10650;51.528;6.748;2022-08-19T09:25:05;23.92;;;21.23;;
20982;SDS011;10650;51.528;6.748;2022-08-19T09:27:35;21.27;;;17.35;;
20982;SDS011;10650;51.528;6.748;2022-08-19T09:30:11;21.90;;;19.33;;
20982;SDS011;10650;51.528;6.748;2022-08-19T09:32:41;20.65;;;18.40;;
20982;SDS011;10650;51.528;6.748;2022-08-19T09:35:12;24.63;;;18.25;;
20982;SDS011;10650;51.528;6.748;2022-08-19T09:37:41;22.75;;;19.95;;
20982;SDS011;10650;51.528;6.748;2022-08-19T09:40:10;22.90;;;20.45;;
20982;SDS011;10650;51.528;6.748;2022-08-19T09:42:40;22.30;;;20.00;;
20982;SDS011;10650;51.528;6.748;2022-08-19T09:45:19;22.02;;;19.42;;
20982;SDS011;10650;51.528;6.748;2022-08-19T09:47:48;22.40;;;19.67;;
20982;SDS011;10650;51.528;6.748;2022-08-19T09:50:21;22.55;;;20.20;;
20982;SDS011;10650;51.528;6.748;2022-08-19T09:52:50;25.73;;;23.00;;
20982;SDS011;10650;51.528;6.748;2022-08-19T09:55:23;23.98;;;21.00;;
20982;SDS011;10650;51.528;6.748;2022-08-19T09:57:57;27.48;;;24.42;;
20982;SDS011;10650;51.528;6.748;2022-08-19T10:00:25;29.02;;;25.70;;
20982;SDS011;10650;51.528;6.748;2022-08-19T10:02:53;29.63;;;23.33;;
20982;SDS011;10650;51.528;6.748;2022-08-19T10:05:23;26.90;;;24.10;;
20982;SDS011;10650;51.528;6.748;2022-08-19T10:08:08;20.75;;;18.67;;
20982;SDS011;10650;51.528;6.748;2022-08-19T10:10:39;28.23;;;23.85;;
20982;SDS011;10650;51.528;6.748;2022-08-19T10:13:11;27.63;;;24.23;;
20982;SDS011;10650;51.528;6.748;2022-08-19T10:15:40;25.33;;;22.67;;
20982;SDS011;10650;51.528;6.748;2022-08-19T10:18:13;26.38;;;23.55;;
20982;SDS011;10650;51.528;6.748;2022-08-19T10:20:44;26.70;;;23.55;;
20982;SDS011;10650;51.528;6.748;2022-08-19T10:23:18;24.98;;;21.55;;
20982;SDS011;10650;51.528;6.748;2022-08-19T10:25:46;25.20;;;22.52;;
20982;SDS011;10650;51.528;6.748;2022-08-19T10:28:15;23.35;;;21.05;;
20982;SDS011;10650;51.528;6.748;2022-08-19T10:30:45;26.98;;;23.55;;
20982;SDS011;10650;51.528;6.748;2022-08-19T10:33:14;24.02;;;21.52;;
20982;SDS011;10650;51.528;6.748;2022-08-19T10:36:04;22.23;;;20.02;;
20982;SDS011;10650;51.528;6.748;2022-08-19T10:38:34;26.88;;;24.08;;
20982;SDS011;10650;51.528;6.748;2022-08-19T10:41:09;27.30;;;24.23;;
20982;SDS011;10650;51.528;6.748;2022-08-19T10:43:39;28.42;;;25.48;;
20982;SDS011;10650;51.528;6.748;2022-08-19T10:46:07;27.77;;;24.92;;
20982;SDS011;10650;51.528;6.748;2022-08-19T10:48:42;23.52;;;21.02;;
20982;SDS011;10650;51.528;6.748;2022-08-19T10:51:12;28.55;;;25.45;;
20982;SDS011;10650;51.528;6.748;2022-08-19T10:53:59;24.48;;;21.88;;
20982;SDS011;10650;51.528;6.748;2022-08-19T10:56:32;28.27;;;22.48;;
20982;SDS011;10650;51.528;6.748;2022-08-19T10:59:19;27.02;;;21.45;;
20982;SDS011;10650;51.528;6.748;2022-08-19T11:01:52;20.13;;;18.02;;
20982;SDS011;10650;51.528;6.748;2022-08-19T11:04:22;21.73;;;19.33;;
20982;SDS011;10650;51.528;6.748;2022-08-19T11:06:56;21.45;;;19.27;;
20982;SDS011;10650;51.528;6.748;2022-08-19T11:09:24;23.42;;;20.95;;
20982;SDS011;10650;51.528;6.748;2022-08-19T11:11:59;22.58;;;20.05;;
20982;SDS011;10650;51.528;6.748;2022-08-19T11:14:30;22.00;;;19.80;;
20982;SDS011;10650;51.528;6.748;2022-08-19T11:16:59;19.58;;;17.58;;
20982;SDS011;10650;51.528;6.748;2022-08-19T11:19:28;17.60;;;15.70;;
20982;SDS011;10650;51.528;6.748;2022-08-19T11:21:57;15.38;;;13.73;;
20982;SDS011;10650;51.528;6.748;2022-08-19T11:24:29;15.10;;;13.60;;
20982;SDS011;10650;51.528;6.748;2022-08-19T11:27:00;16.02;;;14.43;;
20982;SDS011;10650;51.528;6.748;2022-08-19T11:29:31;16.25;;;14.63;;
20982;SDS011;10650;51.528;6.748;2022-08-19T11:32:02;17.10;;;15.30;;
20982;SDS011;10650;51.528;6.748;2022-08-19T11:34:31;14.00;;;12.50;;
20982;SDS011;10650;51.528;6.748;2022-08-19T11:37:01;13.95;;;12.60;;
20982;SDS011;10650;51.528;6.748;2022-08-19T11:39:30;12.32;;;11.27;;
20982;SDS011;10650;51.528;6.748;2022-08-19T11:41:59;11.13;;;10.10;;
20982;SDS011;10650;51.528;6.748;2022-08-19T11:44:28;16.52;;;13.15;;
20982;SDS011;10650;51.528;6.748;2022-08-19T11:46:56;12.30;;;11.15;;
20982;SDS011;10650;51.528;6.748;2022-08-19T11:49:34;14.05;;;12.20;;
20982;SDS011;10650;51.528;6.748;2022-08-19T11:52:04;10.48;;;9.38;;
20982;SDS011;10650;51.528;6.748;2022-08-19T11:54:31;10.00;;;9.10;;
20982;SDS011;10650;51.528;6.748;2022-08-19T11:56:59;14.48;;;12.98;;
20982;SDS011;10650;51.528;6.748;2022-08-19T11:59:29;13.55;;;9.52;;
20982;SDS011;10650;51.528;6.748;2022-08-19T12:01:57;12.13;;;10.77;;
20982;SDS011;10650;51.528;6.748;2022-08-19T12:04:25;11.88;;;10.30;;
20982;SDS011;10650;51.528;6.748;2022-08-19T12:06:53;13.18;;;10.55;;
20982;SDS011;10650;51.528;6.748;2022-08-19T12:09:22;12.18;;;11.00;;
20982;SDS011;10650;51.528;6.748;2022-08-19T12:11:50;10.40;;;9.20;;
20982;SDS011;10650;51.528;6.748;2022-08-19T12:14:18;11.65;;;10.45;;
20982;SDS011;10650;51.528;6.748;2022-08-19T12:16:46;9.85;;;8.88;;
20982;SDS011;10650;51.528;6.748;2022-08-19T12:19:17;9.77;;;8.57;;
20982;SDS011;10650;51.528;6.748;2022-08-19T12:21:47;8.88;;;7.97;;
20982;SDS011;10650;51.528;6.748;2022-08-19T12:24:16;10.25;;;8.88;;
20982;SDS011;10650;51.528;6.748;2022-08-19T12:26:50;11.32;;;7.50;;
20982;SDS011;10650;51.528;6.748;2022-08-19T12:29:20;8.13;;;7.43;;
20982;SDS011;10650;51.528;6.748;2022-08-19T12:31:54;6.80;;;5.75;;
20982;SDS011;10650;51.528;6.748;2022-08-19T12:34:27;7.18;;;6.28;;
20982;SDS011;10650;51.528;6.748;2022-08-19T12:36:57;6.90;;;6.20;;
20982;SDS011;10650;51.528;6.748;2022-08-19T12:39:25;9.00;;;7.00;;
20982;SDS011;10650;51.528;6.748;2022-08-19T12:41:54;6.35;;;5.22;;
20982;SDS011;10650;51.528;6.748;2022-08-19T12:44:22;7.22;;;6.15;;
20982;SDS011;10650;51.528;6.748;2022-08-19T12:46:55;8.05;;;6.00;;
20982;SDS011;10650;51.528;6.748;2022-08-19T12:49:22;6.90;;;6.20;;
20982;SDS011;10650;51.528;6.748;2022-08-19T12:52:11;7.30;;;6.60;;
20982;SDS011;10650;51.528;6.748;2022-08-19T12:54:41;8.15;;;6.95;;
20982;SDS011;10650;51.528;6.748;2022-08-19T12:57:11;8.10;;;7.28;;
20982;SDS011;10650;51.528;6.748;2022-08-19T12:59:39;7.55;;;6.80;;
20982;SDS011;10650;51.528;6.748;2022-08-19T13:02:07;8.15;;;7.35;;
20982;SDS011;10650;51.528;6.748;2022-08-19T13:04:35;8.02;;;6.78;;
20982;SDS011;10650;51.528;6.748;2022-08-19T13:07:06;8.53;;;6.57;;
20982;SDS011;10650;51.528;6.748;2022-08-19T13:09:35;7.72;;;6.32;;
20982;SDS011;10650;51.528;6.748;2022-08-19T13:12:03;7.20;;;6.30;;
20982;SDS011;10650;51.528;6.748;2022-08-19T13:14:35;6.05;;;5.53;;
20982;SDS011;10650;51.528;6.748;2022-08-19T13:17:04;8.57;;;6.22;;
20982;SDS011;10650;51.528;6.748;2022-08-19T13:19:32;7.05;;;6.10;;
20982;SDS011;10650;51.528;6.748;2022-08-19T13:22:00;6.45;;;5.82;;
20982;SDS011;10650;51.528;6.748;2022-08-19T13:24:28;7.15;;;6.45;;
20982;SDS011;10650;51.528;6.748;2022-08-19T13:26:59;8.60;;;6.80;;
20982;SDS011;10650;51.528;6.748;2022-08-19T13:29:27;8.85;;;6.40;;
20982;SDS011;10650;51.528;6.748;2022-08-19T13:32:14;8.63;;;7.72;;
20982;SDS011;10650;51.528;6.748;2022-08-19T13:35:00;8.25;;;7.55;;
20982;SDS011;10650;51.528;6.748;2022-08-19T13:37:28;8.55;;;7.70;;
20982;SDS011;10650;51.528;6.748;2022-08-19T13:40:09;9.32;;;8.40;;
20982;SDS011;10650;51.528;6.748;2022-08-19T13:42:41;10.85;;;9.73;;
20982;SDS011;10650;51.528;6.748;2022-08-19T13:45:13;14.00;;;9.57;;
20982;SDS011;10650;51.528;6.748;2022-08-19T13:47:44;10.10;;;9.27;;
20982;SDS011;10650;51.528;6.748;2022-08-19T13:50:13;15.05;;;12.10;;
20982;SDS011;10650;51.528;6.748;2022-08-19T13:52:43;11.30;;;10.25;;
20982;SDS011;10650;51.528;6.748;2022-08-19T13:55:11;12.32;;;10.05;;
20982;SDS011;10650;51.528;6.748;2022-08-19T13:57:49;9.93;;;8.98;;
20982;SDS011;10650;51.528;6.748;2022-08-19T14:02:50;12.13;;;10.05;;
20982;SDS011;10650;51.528;6.748;2022-08-19T14:05:20;12.30;;;10.98;;
20982;SDS011;10650;51.528;6.748;2022-08-19T14:07:48;10.75;;;9.82;;
20982;SDS011;10650;51.528;6.748;2022-08-19T14:10:16;12.27;;;10.60;;
20982;SDS011;10650;51.528;6.748;2022-08-19T14:12:45;11.00;;;10.00;;
20982;SDS011;10650;51.528;6.748;2022-08-19T14:15:13;12.10;;;11.02;;
20982;SDS011;10650;51.528;6.748;2022-08-19T14:17:43;12.23;;;11.10;;
20982;SDS011;10650;51.528;6.748;2022-08-19T14:20:14;12.02;;;10.75;;
20982;SDS011;10650;51.528;6.748;2022-08-19T14:22:44;10.67;;;9.60;;
20982;SDS011;10650;51.528;6.748;2022-08-19T14:25:17;12.00;;;10.05;;
20982;SDS011;10650;51.528;6.748;2022-08-19T14:27:48;9.38;;;7.97;;
20982;SDS011;10650;51.528;6.748;2022-08-19T14:30:18;8.95;;;8.05;;
20982;SDS011;10650;51.528;6.748;2022-08-19T14:32:48;9.50;;;7.90;;
20982;SDS011;10650;51.528;6.748;2022-08-19T14:35:17;9.00;;;8.10;;
20982;SDS011;10650;51.528;6.748;2022-08-19T14:37:45;8.80;;;7.80;;
20982;SDS011;10650;51.528;6.748;2022-08-19T14:40:13;8.93;;;7.85;;
20982;SDS011;10650;51.528;6.748;2022-08-19T14:42:43;9.00;;;8.10;;
20982;SDS011;10650;51.528;6.748;2022-08-19T14:45:11;8.60;;;7.80;;
20982;SDS011;10650;51.528;6.748;2022-08-19T14:47:39;10.98;;;9.50;;
20982;SDS011;10650;51.528;6.748;2022-08-19T14:50:10;12.07;;;10.57;;
20982;SDS011;10650;51.528;6.748;2022-08-19T14:52:45;12.60;;;11.35;;
20982;SDS011;10650;51.528;6.748;2022-08-19T14:55:14;12.60;;;10.50;;
20982;SDS011;10650;51.528;6.748;2022-08-19T14:57:43;13.30;;;11.95;;
20982;SDS011;10650;51.528;6.748;2022-08-19T15:00:12;13.57;;;11.77;;